Flight Track Log - Related Links

Times and Time Zones

All times are in EST time to prevent confusion due to time zone crossing. See the SKW7363 flight status page for this flight to view local times or setup timezone preferences in your user account.

Time Position Orientation Groundspeed Altitude Reporting Facility
EST Latitude Longitude Course Direction KTS MPH feet Rate Location/Type
Fri 10:27:46 PM 40.8003 -112.0014 314° West 146 168 5,000  Level Salt Lake Center
Fri 10:27:50 PM 40.7997 -111.9981 102° East 132 152 4,900 1,377 Descending Salt Lake Center
Fri 10:28:47 PM 40.8336 -112.0411 316° Northwest 198 228 6,400 1,355 Climbing Salt Lake Center
Fri 10:28:52 PM 40.8339 -112.0353 86° East 179 206 6,300 1,700 Descending Salt Lake Center
Fri 10:29:47 PM 40.8514 -112.1086 288° West 199 229 8,100 1,770 Climbing Salt Lake Center
Fri 10:29:53 PM 40.8508 -112.1061 106° East 200 230 8,100 1,588 Level Salt Lake Center
Fri 10:30:55 PM 40.8867 -112.1583 312° West 203 234 9,900 1,935 Climbing Salt Lake Center
Fri 10:31:57 PM 40.9389 -112.2072 325° Northwest 192 221 12,100 1,707 Climbing Salt Lake Center
Fri 10:32:00 PM 41.0003 -112.2805 314° West  Level Estimated
Fri 10:32:58 PM 40.9847 -112.2483 326° Northwest 198 228 13,400  Level Salt Lake Center
Fri 10:34:00 PM 41.0328 -112.2906 326° Northwest 211 243 14,000 290 Climbing Salt Lake Center
Fri 10:35:02 PM 41.0889 -112.3389 327° Northwest 242 278 14,000  Level Salt Lake Center
Fri 10:36:03 PM 41.1375 -112.4006 316° Northwest 244 281 14,000  Level Salt Lake Center
Fri 10:37:05 PM 41.1769 -112.4683 308° West 233 268 14,000  Level Salt Lake Center
Fri 10:38:07 PM 41.2172 -112.5306 311° West 223 257 14,000  Level Salt Lake Center
Fri 10:39:08 PM 41.2581 -112.5914 312° West 221 254 14,000 537 Level Salt Lake Center
Fri 10:40:10 PM 41.3058 -112.6631 312° West 216 249 15,100 919 Climbing Salt Lake Center
Fri 10:41:12 PM 41.3453 -112.7214 312° West 212 244 15,900 732 Climbing Salt Lake Center
Fri 10:42:13 PM 41.3836 -112.7817 310° West 213 245 16,600 683 Climbing Salt Lake Center
Fri 10:43:15 PM 41.4233 -112.8400 312° West 215 247 17,300 677 Climbing Salt Lake Center
Fri 10:44:17 PM 41.4617 -112.9000 310° West 212 244 18,000 484 Climbing Salt Lake Center
Fri 10:45:19 PM 41.5003 -112.9603 311° West 213 245 18,300 439 Climbing Salt Lake Center
Fri 10:46:20 PM 41.5383 -113.0208 310° West 213 245 18,900 683 Climbing Salt Lake Center
Fri 10:47:22 PM 41.5864 -113.0919 312° West 214 246 19,700 634 Climbing Salt Lake Center
Fri 10:48:23 PM 41.6267 -113.1525 312° West 218 251 20,200 488 Climbing Salt Lake Center
Fri 10:49:25 PM 41.6661 -113.2139 311° West 218 251 20,700 581 Climbing Salt Lake Center
Fri 10:50:27 PM 41.7069 -113.2756 312° West 220 253 21,400 585 Climbing Salt Lake Center
Fri 10:51:28 PM 41.7464 -113.3364 311° West 217 250 21,900 293 Climbing Salt Lake Center
Fri 10:52:30 PM 41.7881 -113.3986 312° West 221 254 22,000 48 Climbing Salt Lake Center
Fri 10:53:32 PM 41.8306 -113.4647 311° West 230 265 22,000  Level Salt Lake Center
Fri 10:54:33 PM 41.8736 -113.5294 312° West 233 268 22,000  Level Salt Lake Center
Fri 10:55:35 PM 41.9236 -113.6103 310° West 234 269 22,000  Level Salt Lake Center
Fri 10:56:36 PM 41.9664 -113.6747 312° West 233 268 22,000  Level Salt Lake Center
Fri 10:57:38 PM 42.0081 -113.7417 310° West 233 268 22,000  Level Salt Lake Center
Fri 10:58:40 PM 42.0494 -113.8064 311° West 229 264 22,000 -634 Level Salt Lake Center
Fri 10:59:41 PM 42.0914 -113.8719 311° West 231 266 20,700 -1,707 Descending Salt Lake Center
Fri 11:00:43 PM 42.1300 -113.9342 310° West 223 257 18,500 -1,805 Descending Salt Lake Center
Fri 11:01:44 PM 42.1706 -113.9958 312° West 221 254 17,000 -1,707 Descending Salt Lake Center
Fri 11:02:46 PM 42.2075 -114.0547 310° West 213 245 15,000 -1,951 Descending Salt Lake Center
Fri 11:03:47 PM 42.2494 -114.1222 310° West 202 232 13,000 -1,854 Descending Salt Lake Center
Fri 11:04:49 PM 42.2903 -114.1747 316° Northwest 197 227 11,200 -1,561 Descending Salt Lake Center
Fri 11:05:50 PM 42.3400 -114.2167 328° Northwest 208 239 9,800 -1,377 Descending Salt Lake Center
Fri 11:06:51 PM 42.3861 -114.2617 324° Northwest 199 229 8,400 -1,268 Descending Salt Lake Center
Fri 11:07:53 PM 42.4275 -114.3022 324° Northwest 194 223 7,200 -1,161 Descending Salt Lake Center

Login

Don't have an account? Register now (free) for customized features, flight alerts, and more!